Ever Best — 3FWT8 — position and weather

sailwx.info

Track history (hours):
 
Tides and Currents Weather Stations Pressure Air Temp Water Temp Dewpoint Dewpoint Depression Visibility Wind Speed Wind Dir Waves Ship Positions

Ever Best

Last reported at 2018-Apr-18 22:59 UTC. Time now 2018-Apr-20 16:45 UTC.
Position N 30°13' E 123°12'.

Length 229 m; draft 13.1 m.

Type: Cargo ship. MMSI: 355173000.

Date/timePositionNaut miles runAvg speedWind from/ knotsBaromVisibWave heightAir tempDewpointWater temp
2018-Apr-18 22:59N 30°13' E 123°12'610.2
2018-Apr-18 22:23N 30°17' E 123°18'512.4
2018-Apr-18 22:00N 30°21' E 123°22'711.6
2018-Apr-18 21:23N 30°26' E 123°27'511.8
2018-Apr-18 21:00N 30°29' E 123°31'2910.8
2018-Apr-18 18:20N 30°49' E 123°55'411.1
2018-Apr-18 17:58N 30°51' E 123°59'511.0
2018-Apr-18 17:30N 30°55' E 124°03'610.8
2018-Apr-18 16:59N 30°58' E 124°08'710.8
2018-Apr-18 16:23N 31°02' E 124°14'611.1
2018-Apr-18 15:49N 31°07' E 124°20'511.7
2018-Apr-18 15:24N 31°10' E 124°24'511.6
2018-Apr-18 15:00N 31°13' E 124°28'612.2
2018-Apr-18 14:30N 31°17' E 124°33'713.0
2018-Apr-18 14:00N 31°21' E 124°39'714.5
2018-Apr-18 13:30N 31°26' E 124°46'611.8
2018-Apr-18 13:00N 31°30' E 124°51'813.5
2018-Apr-18 12:26N 31°35' E 124°58'613.4
2018-Apr-18 12:00N 31°38' E 125°03'813.2
2018-Apr-18 11:23N 31°44' E 125°10'512.9
2018-Apr-18 11:00N 31°47' E 125°14'25411.6
2018-Apr-17 12:59N 34°34' E 129°03'711.5
2018-Apr-17 12:22N 34°39' E 129°10'  
2018-Apr-15 04:16N 41°16' E 140°08'310.1
2018-Apr-15 04:00N 41°18' E 140°11'5 9.5
2018-Apr-15 03:30N 41°21' E 140°16'5 9.0
2018-Apr-15 03:00N 41°23' E 140°21'510.1
2018-Apr-15 02:30N 41°26' E 140°27'510.2
2018-Apr-15 02:00N 41°29' E 140°32'510.7
2018-Apr-15 01:30N 41°32' E 140°38'510.1
2018-Apr-15 01:00N 41°34' E 140°44'5 9.6
2018-Apr-15 00:30N 41°37' E 140°49'5 9.1
2018-Apr-15 00:00N 41°39' E 140°54'510.4
2018-Apr-14 23:30N 41°40' E 141°01'612.0
2018-Apr-14 23:00N 41°40' E 141°10'611.6
2018-Apr-14 22:30N 41°41' E 141°17'611.6
2018-Apr-14 22:00N 41°42' E 141°25'611.9
2018-Apr-14 21:30N 41°43' E 141°33'611.5
2018-Apr-14 20:58N 41°43' E 141°41'  
Track history (hours):
 
Tides and Currents Weather Stations Pressure Air Temp Water Temp Dewpoint Dewpoint Depression Visibility Wind Speed Wind Dir Waves Ship Positions

Ever Best

Last reported at 2018-Apr-18 22:59 UTC. Time now 2018-Apr-20 16:45 UTC.
Position N 30°13' E 123°12'.

Length 229 m; draft 13.1 m.

Type: Cargo ship. MMSI: 355173000.

Date/timePositionNaut miles runAvg speedWind from/ knotsBaromVisibWave heightAir tempDewpointWater temp
2018-Apr-18 22:59N 30°13' E 123°12'610.2
2018-Apr-18 22:23N 30°17' E 123°18'512.4
2018-Apr-18 22:00N 30°21' E 123°22'711.6
2018-Apr-18 21:23N 30°26' E 123°27'511.8
2018-Apr-18 21:00N 30°29' E 123°31'2910.8
2018-Apr-18 18:20N 30°49' E 123°55'411.1
2018-Apr-18 17:58N 30°51' E 123°59'511.0
2018-Apr-18 17:30N 30°55' E 124°03'610.8
2018-Apr-18 16:59N 30°58' E 124°08'710.8
2018-Apr-18 16:23N 31°02' E 124°14'611.1
2018-Apr-18 15:49N 31°07' E 124°20'511.7
2018-Apr-18 15:24N 31°10' E 124°24'511.6
2018-Apr-18 15:00N 31°13' E 124°28'612.2
2018-Apr-18 14:30N 31°17' E 124°33'713.0
2018-Apr-18 14:00N 31°21' E 124°39'714.5
2018-Apr-18 13:30N 31°26' E 124°46'611.8
2018-Apr-18 13:00N 31°30' E 124°51'813.5
2018-Apr-18 12:26N 31°35' E 124°58'613.4
2018-Apr-18 12:00N 31°38' E 125°03'813.2
2018-Apr-18 11:23N 31°44' E 125°10'512.9
2018-Apr-18 11:00N 31°47' E 125°14'25411.6
2018-Apr-17 12:59N 34°34' E 129°03'711.5
2018-Apr-17 12:22N 34°39' E 129°10'  
2018-Apr-15 04:16N 41°16' E 140°08'310.1
2018-Apr-15 04:00N 41°18' E 140°11'5 9.5
2018-Apr-15 03:30N 41°21' E 140°16'5 9.0
2018-Apr-15 03:00N 41°23' E 140°21'510.1
2018-Apr-15 02:30N 41°26' E 140°27'510.2
2018-Apr-15 02:00N 41°29' E 140°32'510.7
2018-Apr-15 01:30N 41°32' E 140°38'510.1
2018-Apr-15 01:00N 41°34' E 140°44'5 9.6
2018-Apr-15 00:30N 41°37' E 140°49'5 9.1
2018-Apr-15 00:00N 41°39' E 140°54'510.4
2018-Apr-14 23:30N 41°40' E 141°01'612.0
2018-Apr-14 23:00N 41°40' E 141°10'611.6
2018-Apr-14 22:30N 41°41' E 141°17'611.6
2018-Apr-14 22:00N 41°42' E 141°25'611.9
2018-Apr-14 21:30N 41°43' E 141°33'611.5
2018-Apr-14 20:58N 41°43' E 141°41'  

Dump ship's entire track history